Terminal Aerodrome Forecast
Issued by NWS

Home | Current Version | Previous Version | Text Only | Print | Product List | Glossary On
Versions: 1 2 3 4 5 6 7 8 9 10 11 12 13 14 15 16 17 18 19 20 21 22 23 24 25 26 27 28 29 30 31 32 33 34 35 36 37 38
000
FTUS45 KPSR 161126
TAFIWA
TAF
KIWA 161126Z 1612/1712 12004KT P6SM SCT050 BKN090
     FM162000 27005KT P6SM SCT060 SCT120
     FM170200 VRB04KT P6SM SKC
      AMD LTD TO CLD VIS AND WIND TIL 161300=

USA.gov is the U.S. government's official web portal to all federal, state and local government web resources and services.